Time;durP1;ratioP1;P1;durP2;ratioP2;P2;SDS_P1;SDS_P2;PMS_P1;PMS_P2;Temp;Humidity;BMP_temperature;BMP_pressure;BME280_temperature;BME280_humidity;BME280_pressure;Samples;Min_cycle;Max_cycle;Signal;HPM_P1;HPM_P2
2023/05/15 00:00:57;;;;;;;6.50;4.65;;;17.70;60.00;;;;;;5072909;28;20227;-71
2023/05/15 00:03:25;;;;;;;5.57;4.53;;;17.70;59.90;;;;;;5072987;28;20278;-71
2023/05/15 00:05:52;;;;;;;5.78;4.82;;;17.80;60.00;;;;;;5072685;28;20230;-71
2023/05/15 00:08:19;;;;;;;6.60;4.60;;;17.70;59.90;;;;;;5072725;28;20187;-71
2023/05/15 00:10:48;;;;;;;5.82;4.93;;;17.70;60.00;;;;;;5054449;28;20217;-72
2023/05/15 00:13:17;;;;;;;5.97;4.70;;;17.70;59.90;;;;;;5072634;28;20187;-71
2023/05/15 00:15:44;;;;;;;5.45;4.90;;;17.70;59.90;;;;;;5072624;28;20253;-71
2023/05/15 00:18:12;;;;;;;8.63;5.03;;;17.70;59.90;;;;;;5071817;28;20252;-71
2023/05/15 00:20:38;;;;;;;5.65;4.68;;;17.70;59.90;;;;;;5054748;28;20225;-71
2023/05/15 00:23:06;;;;;;;5.07;4.50;;;17.70;59.90;;;;;;5072397;28;20201;-71
2023/05/15 00:25:33;;;;;;;5.57;4.68;;;17.70;59.90;;;;;;5072240;28;20630;-72
2023/05/15 00:28:01;;;;;;;5.13;4.18;;;17.70;59.90;;;;;;5072412;28;20187;-71
2023/05/15 00:30:28;;;;;;;6.35;4.65;;;17.70;59.90;;;;;;5072284;28;20214;-72
2023/05/15 00:32:56;;;;;;;5.78;4.50;;;17.70;59.90;;;;;;5071178;28;20676;-71
2023/05/15 00:35:23;;;;;;;5.28;4.53;;;17.70;59.90;;;;;;5071997;28;20230;-72
2023/05/15 00:37:50;;;;;;;6.78;4.47;;;17.70;59.90;;;;;;5072323;28;20191;-71
2023/05/15 00:40:24;;;;;;;4.88;4.05;;;17.70;60.00;;;;;;5054366;28;20305;-71
2023/05/15 00:42:52;;;;;;;6.10;4.43;;;17.70;59.90;;;;;;5071893;28;20234;-71
2023/05/15 00:45:22;;;;;;;5.05;4.18;;;17.70;59.90;;;;;;5086897;28;20696;-71
2023/05/15 00:47:50;;;;;;;5.28;4.50;;;17.70;59.90;;;;;;5072161;28;20275;-72
2023/05/15 00:50:17;;;;;;;6.03;4.60;;;17.70;60.70;;;;;;5072372;28;20218;-71
2023/05/15 00:52:45;;;;;;;6.10;4.70;;;17.70;59.90;;;;;;5071694;28;20587;-71
2023/05/15 00:55:12;;;;;;;6.85;4.53;;;17.70;59.90;;;;;;5071729;28;20234;-71
2023/05/15 00:57:43;;;;;;;5.18;4.53;;;17.70;59.90;;;;;;5071783;28;20191;-72
2023/05/15 01:00:11;;;;;;;5.68;4.38;;;17.70;59.90;;;;;;5072137;28;20297;-71
2023/05/15 01:02:40;;;;;;;5.70;4.20;;;17.70;59.90;;;;;;5072133;28;20205;-71
2023/05/15 01:05:08;;;;;;;9.23;4.50;;;17.70;59.90;;;;;;5072120;28;20223;-71
2023/05/15 01:07:40;;;;;;;5.40;4.55;;;17.70;59.90;;;;;;5071645;28;20599;-71
2023/05/15 01:10:08;;;;;;;6.57;4.50;;;17.70;59.90;;;;;;5072105;28;20222;-71
2023/05/15 01:12:37;;;;;;;6.07;4.30;;;17.70;59.90;;;;;;5072024;28;20230;-71
2023/05/15 01:15:05;;;;;;;6.30;4.93;;;17.70;59.90;;;;;;5071459;28;20227;-71
2023/05/15 01:17:32;;;;;;;5.72;4.50;;;17.70;59.90;;;;;;5071598;28;20194;-71
2023/05/15 01:20:08;;;;;;;5.43;4.40;;;17.70;59.90;;;;;;5071628;28;20233;-71
2023/05/15 01:22:45;;;;;;;6.25;4.30;;;17.60;59.80;;;;;;5071947;28;20282;-70
2023/05/15 01:25:44;;;;;;;5.15;4.30;;;17.70;59.90;;;;;;5071908;28;20218;-71
2023/05/15 01:28:18;;;;;;;4.38;3.97;;;17.60;59.80;;;;;;5072164;28;20202;-71
2023/05/15 01:30:48;;;;;;;4.50;4.10;;;17.70;59.90;;;;;;5071414;28;20215;-71
2023/05/15 01:33:20;;;;;;;6.03;4.63;;;17.70;59.90;;;;;;5071361;28;20225;-71
2023/05/15 01:35:51;;;;;;;6.65;4.50;;;17.70;59.90;;;;;;5071786;28;20230;-71
2023/05/15 01:38:27;;;;;;;8.45;4.93;;;17.70;59.90;;;;;;5071790;28;20193;-71
2023/05/15 01:40:59;;;;;;;5.32;4.60;;;17.70;59.90;;;;;;5071857;28;20225;-71
2023/05/15 01:43:31;;;;;;;6.47;4.57;;;17.70;59.90;;;;;;5072466;28;20187;-71
2023/05/15 01:45:59;;;;;;;5.90;4.28;;;17.70;60.00;;;;;;5075445;28;20302;-71
2023/05/15 01:48:27;;;;;;;5.85;4.30;;;17.70;59.90;;;;;;5075028;28;20222;-71
2023/05/15 01:50:58;;;;;;;5.10;4.28;;;17.70;60.00;;;;;;5075371;28;20222;-71
2023/05/15 01:53:26;;;;;;;5.35;4.22;;;17.70;60.00;;;;;;5057902;28;20209;-71
2023/05/15 01:55:54;;;;;;;6.10;4.65;;;17.60;59.90;;;;;;5075154;28;20241;-71
2023/05/15 01:58:23;;;;;;;5.80;4.35;;;17.60;59.90;;;;;;5075187;28;20187;-71
2023/05/15 02:00:53;;;;;;;7.15;4.20;;;17.70;59.90;;;;;;5056966;28;20701;-71
2023/05/15 02:03:20;;;;;;;5.68;4.40;;;17.70;60.00;;;;;;5075054;28;20191;-71
2023/05/15 02:05:48;;;;;;;5.63;4.35;;;17.70;60.00;;;;;;5074945;28;20214;-71
2023/05/15 02:08:15;;;;;;;5.03;4.07;;;17.60;59.90;;;;;;5075655;28;20191;-73
2023/05/15 02:10:44;;;;;;;6.35;4.35;;;17.60;59.90;;;;;;5075099;28;20221;-72
2023/05/15 02:13:12;;;;;;;5.10;4.38;;;17.60;59.90;;;;;;5057067;28;20201;-72
2023/05/15 02:15:39;;;;;;;6.35;4.57;;;17.70;60.00;;;;;;5074925;28;20236;-72
2023/05/15 02:18:08;;;;;;;5.95;4.25;;;17.70;60.00;;;;;;5074524;28;20560;-73
2023/05/15 02:20:35;;;;;;;7.07;4.55;;;17.70;60.00;;;;;;5074697;28;20218;-72
2023/05/15 02:23:02;;;;;;;6.63;4.00;;;17.60;59.90;;;;;;5057250;28;20468;-72
2023/05/15 02:25:44;;;;;;;5.20;4.22;;;17.60;60.00;;;;;;5074304;28;20298;-72
2023/05/15 02:28:18;;;;;;;7.38;4.40;;;17.60;59.90;;;;;;5074389;28;20657;-70
2023/05/15 02:30:54;;;;;;;5.70;4.50;;;17.70;60.00;;;;;;5074626;28;20210;-71
2023/05/15 02:33:30;;;;;;;6.28;4.45;;;17.60;60.00;;;;;;5074184;28;20558;-71
2023/05/15 02:36:02;;;;;;;7.28;4.28;;;17.60;60.00;;;;;;5074442;28;20230;-71
2023/05/15 02:38:33;;;;;;;6.78;4.38;;;17.60;60.00;;;;;;5056118;28;20199;-71
2023/05/15 02:41:01;;;;;;;6.93;4.57;;;17.60;60.00;;;;;;5056340;28;20211;-71
2023/05/15 02:43:29;;;;;;;6.47;4.35;;;17.60;60.00;;;;;;5074305;28;20187;-71
2023/05/15 02:45:57;;;;;;;6.50;4.38;;;17.60;60.00;;;;;;5073958;28;20219;-72
2023/05/15 02:48:27;;;;;;;6.78;4.55;;;17.60;60.00;;;;;;5074219;28;20266;-71
2023/05/15 02:50:54;;;;;;;6.95;4.63;;;17.70;60.10;;;;;;5056536;28;20215;-71
2023/05/15 02:53:21;;;;;;;5.63;4.65;;;17.60;60.00;;;;;;5074126;28;20183;-71
2023/05/15 02:55:48;;;;;;;6.97;4.00;;;17.60;60.10;;;;;;5073041;28;20575;-71
2023/05/15 02:58:16;;;;;;;5.35;3.88;;;17.60;60.00;;;;;;5056429;28;20273;-72
2023/05/15 03:00:43;;;;;;;7.05;4.57;;;17.60;60.00;;;;;;5074020;28;20276;-71
2023/05/15 03:03:10;;;;;;;6.22;4.78;;;17.60;60.10;;;;;;5073576;28;20724;-71
2023/05/15 03:05:39;;;;;;;7.05;4.75;;;17.60;60.10;;;;;;5073529;28;20595;-71
2023/05/15 03:08:06;;;;;;;5.65;4.40;;;17.60;60.10;;;;;;5055786;28;20723;-71
2023/05/15 03:10:33;;;;;;;5.72;4.18;;;17.60;60.10;;;;;;5073891;28;20652;-71
2023/05/15 03:13:00;;;;;;;6.18;4.13;;;17.60;60.10;;;;;;5055552;28;20578;-71
2023/05/15 03:15:27;;;;;;;7.75;4.68;;;17.60;60.10;;;;;;5055923;28;20234;-71
2023/05/15 03:17:54;;;;;;;5.47;4.50;;;17.70;60.20;;;;;;5073104;28;20274;-71
2023/05/15 03:20:21;;;;;;;6.30;4.68;;;17.60;60.20;;;;;;5071722;28;20238;-71
2023/05/15 03:22:50;;;;;;;5.82;4.18;;;17.70;60.20;;;;;;5073782;28;20201;-71
2023/05/15 03:25:17;;;;;;;6.47;4.13;;;17.60;60.90;;;;;;5073240;28;20233;-71
2023/05/15 03:27:44;;;;;;;6.43;4.50;;;17.60;60.10;;;;;;5073360;28;20265;-71
2023/05/15 03:30:11;;;;;;;5.25;4.40;;;17.70;60.30;;;;;;5055743;28;20218;-71
2023/05/15 03:32:38;;;;;;;7.65;5.20;;;17.60;60.20;;;;;;5073355;28;20270;-71
2023/05/15 03:35:06;;;;;;;6.32;4.60;;;17.60;60.20;;;;;;5072956;28;20216;-72
2023/05/15 03:37:33;;;;;;;7.88;5.07;;;17.60;60.20;;;;;;5072841;28;20195;-71
2023/05/15 03:40:02;;;;;;;7.90;4.90;;;17.60;60.20;;;;;;5021581;28;20254;-71
2023/05/15 03:42:29;;;;;;;6.07;4.55;;;17.60;60.20;;;;;;5072800;28;20726;-71
2023/05/15 03:44:56;;;;;;;6.97;4.82;;;17.60;60.20;;;;;;5072661;28;20761;-71
2023/05/15 03:47:23;;;;;;;8.60;4.78;;;17.60;60.20;;;;;;5072738;28;20649;-71
2023/05/15 03:49:50;;;;;;;7.22;5.07;;;17.60;60.30;;;;;;5072993;28;20214;-71
2023/05/15 03:52:17;;;;;;;9.05;5.28;;;17.60;60.30;;;;;;5072696;28;20183;-71
2023/05/15 03:54:44;;;;;;;8.80;5.28;;;17.60;60.30;;;;;;5072815;28;20195;-71
2023/05/15 03:57:13;;;;;;;6.30;5.10;;;17.60;60.30;;;;;;5072692;28;20217;-71
2023/05/15 03:59:40;;;;;;;6.63;5.13;;;17.60;60.30;;;;;;5072820;28;20191;-71
2023/05/15 04:02:07;;;;;;;6.60;4.95;;;17.60;60.30;;;;;;5072513;28;20226;-71
2023/05/15 04:04:34;;;;;;;5.13;4.60;;;17.60;60.30;;;;;;5072443;28;20193;-71
2023/05/15 04:07:02;;;;;;;5.57;4.88;;;17.60;60.30;;;;;;5072445;28;20187;-71
2023/05/15 04:09:29;;;;;;;5.85;5.05;;;17.60;60.30;;;;;;5072696;28;20191;-71
2023/05/15 04:11:56;;;;;;;6.22;4.93;;;17.60;60.30;;;;;;5072669;28;20274;-70
2023/05/15 04:14:26;;;;;;;7.93;5.30;;;17.60;60.30;;;;;;5038000;28;20202;-71
2023/05/15 04:16:52;;;;;;;6.72;4.85;;;17.60;60.30;;;;;;5072397;28;20233;-71
2023/05/15 04:19:19;;;;;;;6.07;4.70;;;17.60;60.30;;;;;;5072198;28;20600;-71
2023/05/15 04:21:46;;;;;;;5.25;4.15;;;17.60;61.10;;;;;;5072701;28;20218;-71
2023/05/15 04:24:13;;;;;;;4.85;4.35;;;17.60;60.40;;;;;;5072219;28;20279;-71
2023/05/15 04:26:40;;;;;;;8.00;4.40;;;17.60;61.20;;;;;;5072591;28;20221;-71
2023/05/15 04:29:08;;;;;;;5.97;4.28;;;17.60;60.40;;;;;;5072454;28;20287;-71
2023/05/15 04:31:37;;;;;;;6.05;4.22;;;17.60;60.40;;;;;;5071995;28;20719;-71
2023/05/15 04:34:04;;;;;;;4.70;3.95;;;17.60;60.40;;;;;;5072085;28;20563;-71
2023/05/15 04:36:32;;;;;;;4.57;3.55;;;17.60;60.40;;;;;;5072428;28;20257;-71
2023/05/15 04:38:59;;;;;;;6.32;3.85;;;17.60;60.40;;;;;;5072322;28;20198;-71
2023/05/15 04:41:26;;;;;;;4.75;3.75;;;17.60;60.40;;;;;;5072378;28;20309;-71
2023/05/15 04:43:53;;;;;;;4.70;3.47;;;17.60;60.40;;;;;;5072152;28;20277;-71
2023/05/15 04:46:21;;;;;;;4.90;3.65;;;17.60;60.40;;;;;;5072283;28;20225;-71
2023/05/15 04:48:49;;;;;;;6.60;3.30;;;17.60;60.40;;;;;;5072239;28;20277;-72
2023/05/15 04:51:17;;;;;;;5.72;3.80;;;17.60;60.40;;;;;;5072388;28;20229;-71
2023/05/15 04:53:44;;;;;;;5.18;3.67;;;17.60;60.40;;;;;;5072143;28;20187;-71
2023/05/15 04:56:11;;;;;;;4.50;3.28;;;17.60;60.40;;;;;;5071849;28;20227;-71
2023/05/15 04:58:38;;;;;;;4.25;3.20;;;17.60;60.50;;;;;;5071890;28;20197;-71
2023/05/15 05:01:05;;;;;;;5.05;3.25;;;17.60;60.40;;;;;;5066875;28;20302;-71
2023/05/15 05:03:32;;;;;;;3.75;3.17;;;17.60;60.40;;;;;;5072027;28;20274;-71
2023/05/15 05:06:01;;;;;;;4.75;3.50;;;17.60;61.30;;;;;;5072002;28;20219;-71
2023/05/15 05:08:28;;;;;;;4.32;3.42;;;17.60;60.40;;;;;;5071752;28;20187;-71
2023/05/15 05:10:58;;;;;;;3.20;2.90;;;17.60;60.50;;;;;;5072183;28;20219;-71
2023/05/15 05:13:25;;;;;;;4.10;3.33;;;17.60;60.40;;;;;;5071945;28;20294;-71
2023/05/15 05:15:52;;;;;;;4.50;2.90;;;17.60;60.40;;;;;;5071917;28;20241;-71
2023/05/15 05:18:19;;;;;;;4.88;3.10;;;17.60;60.40;;;;;;5054625;28;20278;-71
2023/05/15 05:20:46;;;;;;;4.88;3.05;;;17.60;60.50;;;;;;5075942;28;20215;-71
2023/05/15 05:23:14;;;;;;;3.97;2.83;;;17.60;60.40;;;;;;5058329;28;20198;-71
2023/05/15 05:25:42;;;;;;;3.97;2.92;;;17.60;60.40;;;;;;5075732;28;20219;-71
2023/05/15 05:28:09;;;;;;;4.05;3.22;;;17.60;60.40;;;;;;5075746;28;20187;-71
2023/05/15 05:30:36;;;;;;;5.18;3.03;;;17.60;60.50;;;;;;5075644;28;20214;-71
2023/05/15 05:33:03;;;;;;;3.28;2.97;;;17.50;60.40;;;;;;5075655;28;20186;-71
2023/05/15 05:35:30;;;;;;;3.40;2.92;;;17.60;60.50;;;;;;5075228;28;20250;-71
2023/05/15 05:37:57;;;;;;;3.60;2.90;;;17.60;60.40;;;;;;5057725;28;20183;-71
2023/05/15 05:40:26;;;;;;;4.03;3.05;;;17.60;60.50;;;;;;5075486;28;20297;-71
2023/05/15 05:42:53;;;;;;;5.22;2.70;;;17.60;60.50;;;;;;5075440;28;20270;-71
2023/05/15 05:45:20;;;;;;;5.40;3.10;;;17.60;60.50;;;;;;5074932;28;20218;-71
2023/05/15 05:47:48;;;;;;;3.40;2.55;;;17.50;60.40;;;;;;5075362;28;20202;-71
2023/05/15 05:50:15;;;;;;;3.72;2.65;;;17.60;60.50;;;;;;5057741;28;20219;-72
2023/05/15 05:52:42;;;;;;;2.75;2.10;;;17.50;60.40;;;;;;5075190;28;20274;-72
2023/05/15 05:55:09;;;;;;;3.13;2.70;;;17.50;61.20;;;;;;5075281;28;20222;-72
2023/05/15 05:57:38;;;;;;;3.22;2.72;;;17.60;60.50;;;;;;5075063;28;20214;-72
2023/05/15 06:00:08;;;;;;;3.20;2.80;;;17.60;60.50;;;;;;5074747;28;20708;-73
2023/05/15 06:02:35;;;;;;;3.65;2.78;;;17.60;60.50;;;;;;5057174;28;20237;-71
2023/05/15 06:05:03;;;;;;;3.53;2.47;;;17.50;60.30;;;;;;5075220;28;20202;-72
2023/05/15 06:07:30;;;;;;;4.50;2.70;;;17.50;60.40;;;;;;5074890;28;20241;-71
2023/05/15 06:09:57;;;;;;;2.92;2.63;;;17.50;60.30;;;;;;5057255;28;20282;-72
2023/05/15 06:12:25;;;;;;;2.53;2.33;;;17.50;60.40;;;;;;5074950;28;20186;-71
2023/05/15 06:14:53;;;;;;;4.60;2.80;;;17.60;60.50;;;;;;5074493;28;20193;-71
2023/05/15 06:17:20;;;;;;;4.35;2.92;;;17.50;60.40;;;;;;5057031;28;20301;-71
2023/05/15 06:19:47;;;;;;;2.60;2.40;;;17.50;60.40;;;;;;5074378;28;20230;-71
2023/05/15 06:22:14;;;;;;;2.63;2.40;;;17.50;60.40;;;;;;5074994;28;20195;-71
2023/05/15 06:24:42;;;;;;;3.65;2.30;;;17.50;60.40;;;;;;5074638;28;20191;-71
2023/05/15 06:27:09;;;;;;;2.90;2.30;;;17.50;60.40;;;;;;5074855;28;20222;-71
2023/05/15 06:29:36;;;;;;;2.75;2.28;;;17.60;60.50;;;;;;5074113;28;20726;-71
2023/05/15 06:32:05;;;;;;;3.22;2.40;;;17.50;60.40;;;;;;5074753;28;20309;-72
2023/05/15 06:34:32;;;;;;;3.20;2.50;;;17.50;60.40;;;;;;5074519;28;20205;-71
2023/05/15 06:36:59;;;;;;;2.60;2.40;;;17.50;60.40;;;;;;5074524;28;20284;-71
2023/05/15 06:39:26;;;;;;;2.58;2.30;;;17.50;60.40;;;;;;5074558;28;20186;-71
2023/05/15 06:41:57;;;;;;;2.40;2.10;;;17.50;60.40;;;;;;5074041;28;20245;-71
2023/05/15 06:44:25;;;;;;;5.28;2.42;;;17.50;60.40;;;;;;5074317;28;20252;-71
2023/05/15 06:46:52;;;;;;;4.93;2.75;;;17.50;60.40;;;;;;5074412;28;20260;-71
2023/05/15 06:49:21;;;;;;;2.60;2.05;;;17.50;60.40;;;;;;5074283;28;20336;-71
2023/05/15 06:51:48;;;;;;;4.35;2.53;;;17.50;60.30;;;;;;5074322;28;20298;-71
2023/05/15 06:54:15;;;;;;;4.75;2.60;;;17.50;60.30;;;;;;5074121;28;20270;-71
2023/05/15 06:56:42;;;;;;;3.78;2.13;;;17.50;60.30;;;;;;5074124;28;20234;-71
2023/05/15 06:59:09;;;;;;;4.63;2.42;;;17.50;60.30;;;;;;5074029;28;20282;-71
2023/05/15 07:01:37;;;;;;;3.45;2.55;;;17.50;60.30;;;;;;5074127;28;20301;-71
2023/05/15 07:04:04;;;;;;;3.35;2.55;;;17.50;60.30;;;;;;5073980;28;20193;-71
2023/05/15 07:06:33;;;;;;;3.95;2.25;;;17.50;60.30;;;;;;5073726;28;20724;-71
2023/05/15 07:09:00;;;;;;;2.75;2.30;;;17.50;60.30;;;;;;5073922;28;20186;-71
2023/05/15 07:11:28;;;;;;;3.60;2.38;;;17.50;60.30;;;;;;5073885;28;20306;-71
2023/05/15 07:13:55;;;;;;;3.53;2.47;;;17.50;61.00;;;;;;5073404;28;20240;-71
2023/05/15 07:16:22;;;;;;;5.82;2.67;;;17.50;60.20;;;;;;5073695;28;20583;-71
2023/05/15 07:18:49;;;;;;;3.53;2.50;;;17.50;60.20;;;;;;5073368;28;20235;-71
2023/05/15 07:21:16;;;;;;;4.35;2.80;;;17.50;60.20;;;;;;5073762;28;20214;-71
2023/05/15 07:23:44;;;;;;;8.13;2.83;;;17.50;60.10;;;;;;5073545;28;20273;-71
2023/05/15 07:26:11;;;;;;;3.67;2.50;;;17.50;60.10;;;;;;5073252;28;20271;-71
2023/05/15 07:28:38;;;;;;;5.10;2.60;;;17.40;60.80;;;;;;5073186;28;20609;-71
2023/05/15 07:31:05;;;;;;;4.88;2.47;;;17.50;60.10;;;;;;5073402;28;20215;-71
2023/05/15 07:33:32;;;;;;;5.68;2.75;;;17.40;59.90;;;;;;5073050;28;20187;-71
2023/05/15 07:35:59;;;;;;;4.32;2.70;;;17.50;60.00;;;;;;5072937;28;20765;-71
2023/05/15 07:38:27;;;;;;;7.80;2.97;;;17.50;60.00;;;;;;5073213;28;20301;-71
2023/05/15 07:40:55;;;;;;;5.68;2.88;;;17.40;60.60;;;;;;5072620;28;20297;-71
2023/05/15 07:43:22;;;;;;;4.93;2.70;;;17.40;59.80;;;;;;5073143;28;20193;-71
2023/05/15 07:45:49;;;;;;;5.85;2.75;;;17.50;59.90;;;;;;5072938;28;20218;-72
2023/05/15 07:48:18;;;;;;;5.10;2.70;;;17.40;59.80;;;;;;5073013;28;20224;-71
2023/05/15 07:50:46;;;;;;;5.72;2.72;;;17.50;59.90;;;;;;5073079;28;20219;-72
2023/05/15 07:53:15;;;;;;;7.63;2.78;;;17.40;59.70;;;;;;5072894;28;20187;-70
2023/05/15 07:55:43;;;;;;;5.00;2.72;;;17.50;59.90;;;;;;5072903;28;20257;-71
2023/05/15 07:58:13;;;;;;;4.15;2.33;;;17.40;59.70;;;;;;5072788;28;20225;-71
2023/05/15 08:00:40;;;;;;;6.63;2.70;;;17.40;59.70;;;;;;5072858;28;20211;-71
2023/05/15 08:03:07;;;;;;;6.18;2.60;;;17.50;59.70;;;;;;5072421;28;20187;-71
2023/05/15 08:05:35;;;;;;;7.80;3.10;;;17.50;59.70;;;;;;5072582;28;20275;-71
2023/05/15 08:08:01;;;;;;;7.45;3.05;;;17.40;59.60;;;;;;5072745;28;20273;-71
2023/05/15 08:10:28;;;;;;;5.90;2.58;;;17.50;59.70;;;;;;5072695;28;20219;-71
2023/05/15 08:12:55;;;;;;;4.88;2.70;;;17.40;59.60;;;;;;5072687;28;20190;-71
2023/05/15 08:15:25;;;;;;;7.57;2.70;;;17.40;59.60;;;;;;5072489;28;20221;-71
2023/05/15 08:17:52;;;;;;;5.43;2.70;;;17.40;59.50;;;;;;5072412;28;20218;-71
2023/05/15 08:20:19;;;;;;;6.80;2.92;;;17.40;59.60;;;;;;5054414;28;20309;-71
2023/05/15 08:22:46;;;;;;;5.95;2.75;;;17.40;59.50;;;;;;5072514;28;20241;-71
2023/05/15 08:25:13;;;;;;;4.43;2.65;;;17.40;59.60;;;;;;5072418;28;20187;-71
2023/05/15 08:27:40;;;;;;;8.30;2.78;;;17.40;59.60;;;;;;5072188;28;20277;-71
2023/05/15 08:30:08;;;;;;;8.40;2.80;;;17.40;59.50;;;;;;5072000;28;20187;-71
2023/05/15 08:32:37;;;;;;;5.75;3.00;;;17.40;59.60;;;;;;5072463;28;20183;-71
2023/05/15 08:35:04;;;;;;;6.72;2.80;;;17.40;59.50;;;;;;5071961;28;20652;-71
2023/05/15 08:37:32;;;;;;;6.93;2.83;;;17.40;59.50;;;;;;5054300;28;20222;-71
2023/05/15 08:39:59;;;;;;;7.70;3.15;;;17.40;59.50;;;;;;5072325;28;20198;-71
2023/05/15 08:42:32;;;;;;;5.38;2.58;;;17.40;59.40;;;;;;5072295;28;20214;-70
2023/05/15 08:45:00;;;;;;;8.50;2.67;;;17.40;59.40;;;;;;5071941;28;20189;-71
2023/05/15 08:47:28;;;;;;;7.45;2.55;;;17.40;59.40;;;;;;5072513;28;20249;-72
2023/05/15 08:50:03;;;;;;;6.13;2.53;;;17.40;59.40;;;;;;5072291;28;20234;-71
2023/05/15 08:52:31;;;;;;;6.63;2.80;;;17.40;59.30;;;;;;5071862;28;20210;-71
2023/05/15 08:54:59;;;;;;;8.10;2.75;;;17.40;59.20;;;;;;5075395;28;20190;-71
2023/05/15 08:57:27;;;;;;;6.63;3.00;;;17.40;59.20;;;;;;5076228;28;20759;-71
2023/05/15 08:59:55;;;;;;;7.70;3.08;;;17.40;59.20;;;;;;5076293;28;20191;-73
2023/05/15 09:02:24;;;;;;;15.15;3.08;;;17.40;58.40;;;;;;5076479;28;20305;-72
2023/05/15 09:04:51;;;;;;;6.65;2.60;;;17.30;57.90;;;;;;5075910;28;20544;-73
2023/05/15 09:07:20;;;;;;;9.85;2.72;;;17.10;57.70;;;;;;5075771;28;20220;-76
2023/05/15 09:09:47;;;;;;;15.32;2.90;;;17.00;57.80;;;;;;5076231;28;20237;-75
2023/05/15 09:12:15;;;;;;;18.27;3.08;;;16.80;57.70;;;;;;5075951;28;20684;-77
2023/05/15 09:14:43;;;;;;;10.98;2.95;;;16.70;58.00;;;;;;5057962;28;20771;-78
2023/05/15 09:17:11;;;;;;;14.20;3.55;;;16.50;58.10;;;;;;5075743;28;20685;-76
2023/05/15 09:19:39;;;;;;;17.90;3.13;;;16.40;58.10;;;;;;5075773;28;20309;-75
2023/05/15 09:22:21;;;;;;;15.48;3.95;;;16.40;58.50;;;;;;5057786;28;20219;-79
2023/05/15 09:24:51;;;;;;;18.80;3.70;;;16.30;59.00;;;;;;5075842;28;20274;-79
2023/05/15 09:27:20;;;;;;;13.98;3.42;;;16.30;58.10;;;;;;5075933;28;20221;-78
2023/05/15 09:29:50;;;;;;;18.25;3.63;;;16.30;57.90;;;;;;5075358;28;20294;-78
2023/05/15 09:32:18;;;;;;;13.13;3.10;;;16.30;57.80;;;;;;5075590;28;20272;-76
2023/05/15 09:34:45;;;;;;;10.68;2.97;;;16.20;58.50;;;;;;5075663;28;20203;-75
2023/05/15 09:37:28;;;;;;;13.02;3.28;;;16.30;59.30;;;;;;5075659;28;20238;-76
2023/05/15 09:40:09;;;;;;;10.82;2.92;;;16.40;59.40;;;;;;5075232;28;20197;-79
2023/05/15 09:42:37;;;;;;;9.18;2.55;;;16.50;59.60;;;;;;5075453;28;20264;-77
2023/05/15 09:45:05;;;;;;;8.40;2.65;;;16.60;59.80;;;;;;5075404;28;20264;-81
2023/05/15 09:47:32;;;;;;;8.13;2.38;;;16.70;59.80;;;;;;5040039;28;20301;-84
2023/05/15 09:50:00;;;;;;;8.25;2.72;;;16.80;59.80;;;;;;5075115;28;20278;-83
2023/05/15 09:52:28;;;;;;;13.10;2.85;;;16.90;59.80;;;;;;5075588;28;20247;-82
2023/05/15 09:54:58;;;;;;;4.88;2.50;;;16.90;59.80;;;;;;5075217;28;20274;-81
2023/05/15 09:57:25;;;;;;;7.53;2.22;;;16.90;59.70;;;;;;5075274;28;20230;-79
2023/05/15 09:59:52;;;;;;;10.10;2.88;;;17.00;59.80;;;;;;5075082;28;20187;-82
2023/05/15 10:02:27;;;;;;;6.70;2.22;;;17.00;59.70;;;;;;5074752;28;20225;-81
2023/05/15 10:04:55;;;;;;;8.63;2.90;;;17.00;59.60;;;;;;5074462;28;20648;-81
2023/05/15 10:07:28;;;;;;;7.90;2.50;;;17.00;59.50;;;;;;5074839;28;20218;-80
2023/05/15 10:09:57;;;;;;;5.70;2.03;;;17.00;59.50;;;;;;5074951;28;20192;-82
2023/05/15 10:12:25;;;;;;;9.55;2.42;;;17.10;59.40;;;;;;5074975;28;20349;-77
2023/05/15 10:14:54;;;;;;;6.18;2.30;;;17.10;59.30;;;;;;5057331;28;20191;-81
2023/05/15 10:17:20;;;;;;;7.30;2.17;;;17.10;59.30;;;;;;5074895;28;20253;-81
2023/05/15 10:19:50;;;;;;;8.38;2.30;;;17.10;59.20;;;;;;5074549;28;20230;-82
2023/05/15 10:22:21;;;;;;;6.43;2.22;;;17.10;59.10;;;;;;5074691;28;20708;-82
2023/05/15 10:24:56;;;;;;;7.47;2.63;;;17.10;59.00;;;;;;5074686;28;20191;-78
2023/05/15 10:27:26;;;;;;;7.90;2.08;;;17.10;58.90;;;;;;5074922;28;20304;-80
2023/05/15 10:29:54;;;;;;;5.97;2.20;;;17.10;58.80;;;;;;5074547;28;20195;-81
2023/05/15 10:32:23;;;;;;;10.13;2.40;;;17.10;58.70;;;;;;5074738;28;20218;-83
2023/05/15 10:34:51;;;;;;;12.18;2.65;;;17.20;58.70;;;;;;5074501;28;20270;-80
2023/05/15 10:37:19;;;;;;;4.28;1.92;;;17.20;58.60;;;;;;5074549;28;20226;-82
2023/05/15 10:39:47;;;;;;;8.60;2.10;;;17.10;58.50;;;;;;5074181;28;20648;-81
2023/05/15 10:42:15;;;;;;;5.55;2.30;;;17.20;58.50;;;;;;5074004;28;20700;-83
2023/05/15 10:44:43;;;;;;;3.78;1.95;;;17.10;58.30;;;;;;5074204;28;20193;-76
2023/05/15 10:47:10;;;;;;;6.22;2.13;;;17.20;58.30;;;;;;5074410;28;20214;-82
2023/05/15 10:49:37;;;;;;;7.00;2.30;;;17.20;58.10;;;;;;5074263;28;20194;-78
2023/05/15 10:52:05;;;;;;;7.80;2.22;;;17.20;58.00;;;;;;5074364;28;20214;-82
2023/05/15 10:54:32;;;;;;;7.28;2.00;;;17.20;58.00;;;;;;5073676;28;20555;-82
2023/05/15 10:56:59;;;;;;;5.07;2.00;;;17.10;57.90;;;;;;5073833;28;20215;-82
2023/05/15 10:59:35;;;;;;;5.90;2.00;;;17.20;58.50;;;;;;5073938;28;20329;-77
2023/05/15 11:02:23;;;;;;;5.82;2.20;;;17.20;57.80;;;;;;5074067;28;20218;-80
2023/05/15 11:04:55;;;;;;;7.30;2.22;;;17.20;57.80;;;;;;5073734;28;20187;-80
2023/05/15 11:07:23;;;;;;;4.72;1.90;;;17.20;57.80;;;;;;5074096;28;20214;-82
2023/05/15 11:09:50;;;;;;;6.60;2.17;;;17.20;57.80;;;;;;5073786;28;20620;-81
2023/05/15 11:12:17;;;;;;;5.28;1.85;;;17.20;57.80;;;;;;5073953;28;20219;-80
2023/05/15 11:15:05;;;;;;;6.88;1.83;;;17.20;57.80;;;;;;5073694;28;20278;-82
2023/05/15 11:17:33;;;;;;;6.47;2.15;;;17.20;57.80;;;;;;5072350;28;20328;-83
2023/05/15 11:20:00;;;;;;;7.20;2.13;;;17.20;57.70;;;;;;5073427;28;20309;-81
2023/05/15 11:22:30;;;;;;;5.78;1.85;;;17.20;57.60;;;;;;5073855;28;20225;-82
2023/05/15 11:25:02;;;;;;;4.97;2.00;;;17.20;57.60;;;;;;5073509;28;20191;-78
2023/05/15 11:27:31;;;;;;;5.43;2.13;;;17.20;57.50;;;;;;5073418;28;20632;-82
2023/05/15 11:30:20;;;;;;;6.28;2.10;;;17.20;57.50;;;;;;5073047;28;20201;-81
2023/05/15 11:32:57;;;;;;;6.00;2.00;;;17.20;57.40;;;;;;5067641;28;20219;-82
2023/05/15 11:35:27;;;;;;;5.38;1.85;;;17.20;57.30;;;;;;5073312;28;20270;-82
2023/05/15 11:37:55;;;;;;;4.45;1.85;;;17.20;57.30;;;;;;5073249;28;20214;-83
2023/05/15 11:40:25;;;;;;;5.53;1.90;;;17.20;57.20;;;;;;5072952;28;20227;-82
2023/05/15 11:43:04;;;;;;;7.20;2.10;;;17.20;57.20;;;;;;5073257;28;20214;-81
2023/05/15 11:45:32;;;;;;;7.30;2.25;;;17.10;57.10;;;;;;5055289;28;20284;-80
2023/05/15 11:48:05;;;;;;;6.78;1.90;;;17.20;57.10;;;;;;5073116;28;20273;-82
2023/05/15 11:50:34;;;;;;;6.70;2.30;;;17.20;57.10;;;;;;5072938;28;20541;-81
2023/05/15 11:53:05;;;;;;;7.68;2.05;;;17.20;57.00;;;;;;5073040;28;20190;-82
2023/05/15 11:55:34;;;;;;;7.82;2.45;;;17.20;57.60;;;;;;5072800;28;20193;-82
2023/05/15 11:58:01;;;;;;;6.05;2.28;;;17.20;57.00;;;;;;5072899;28;20218;-79
2023/05/15 12:00:28;;;;;;;6.80;2.10;;;17.20;57.00;;;;;;5072574;28;20589;-82
2023/05/15 12:02:55;;;;;;;3.70;1.67;;;17.20;56.90;;;;;;5072815;28;20191;-82
2023/05/15 12:05:24;;;;;;;8.02;2.05;;;17.20;56.80;;;;;;5072964;28;20206;-82
2023/05/15 12:07:53;;;;;;;5.30;2.10;;;17.20;56.80;;;;;;5072367;28;20264;-82
2023/05/15 12:10:20;;;;;;;5.43;2.50;;;17.20;56.70;;;;;;5073019;28;20191;-82
2023/05/15 12:12:47;;;;;;;7.57;2.15;;;17.20;56.70;;;;;;5072993;28;20273;-82
2023/05/15 12:15:15;;;;;;;5.15;2.08;;;17.20;56.70;;;;;;5072650;28;20284;-83
2023/05/15 12:17:44;;;;;;;8.82;2.10;;;17.20;57.30;;;;;;5072304;28;20306;-78
2023/05/15 12:20:14;;;;;;;7.05;2.40;;;17.20;56.60;;;;;;5072433;28;20329;-82
2023/05/15 12:22:43;;;;;;;6.47;1.65;;;17.20;56.50;;;;;;5072393;28;20722;-82
2023/05/15 12:25:11;;;;;;;5.80;2.15;;;17.20;56.50;;;;;;5072332;28;20201;-83
2023/05/15 12:27:40;;;;;;;5.13;1.98;;;17.20;56.50;;;;;;5072622;28;20452;-82
2023/05/15 12:30:09;;;;;;;4.90;2.13;;;17.20;56.40;;;;;;5072430;28;20193;-83
2023/05/15 12:32:37;;;;;;;7.10;2.10;;;17.20;56.40;;;;;;5072292;28;20218;-82
2023/05/15 12:35:05;;;;;;;5.72;2.55;;;17.20;56.40;;;;;;5072368;28;20194;-82
2023/05/15 12:37:34;;;;;;;4.53;1.75;;;17.20;56.30;;;;;;5069320;28;20214;-82
2023/05/15 12:40:08;;;;;;;8.35;2.45;;;17.20;56.30;;;;;;5072273;28;20300;-83
2023/05/15 12:42:39;;;;;;;6.35;2.20;;;17.20;56.30;;;;;;5072331;28;20257;-82
2023/05/15 12:45:13;;;;;;;5.85;2.00;;;17.20;56.30;;;;;;5072278;28;20293;-82
2023/05/15 12:47:41;;;;;;;5.68;2.30;;;17.20;56.20;;;;;;5072471;28;20587;-82
2023/05/15 12:50:15;;;;;;;8.75;2.00;;;17.20;56.10;;;;;;5071998;28;20230;-82
2023/05/15 12:52:47;;;;;;;9.13;2.30;;;17.20;56.10;;;;;;5072420;28;20224;-81